createdAt,value
2023-03-29T00:00:21.880Z,95377.75
2023-03-29T00:03:32.482Z,95374.59
2023-03-29T00:06:40.073Z,95373.03
2023-03-29T00:09:48.784Z,95369.88
2023-03-29T00:12:54.872Z,95380.50
2023-03-29T00:16:02.713Z,95377.56
2023-03-29T00:19:15.221Z,95366.22
2023-03-29T00:22:23.405Z,95368.00
2023-03-29T00:25:29.185Z,95361.19
2023-03-29T00:28:36.524Z,95359.81
2023-03-29T00:31:46.191Z,95358.97
2023-03-29T00:34:56.896Z,95365.13
2023-03-29T00:38:01.325Z,95358.22
2023-03-29T00:41:09.897Z,95365.72
2023-03-29T00:44:47.619Z,95363.84
2023-03-29T00:47:58.849Z,95365.41
2023-03-29T00:51:10.043Z,95360.66
2023-03-29T00:54:19.909Z,95358.78
2023-03-29T00:57:33.411Z,95367.38
2023-03-29T01:00:45.654Z,95357.41
2023-03-29T01:03:55.149Z,95362.03
2023-03-29T01:07:08.654Z,95359.66
2023-03-29T01:10:19.060Z,95363.91
2023-03-29T01:13:32.200Z,95366.38
2023-03-29T01:16:41.539Z,95371.69
2023-03-29T01:19:51.431Z,95377.50
2023-03-29T01:23:32.335Z,95379.88
2023-03-29T01:26:50.060Z,95373.38
2023-03-29T01:30:01.667Z,95369.63
2023-03-29T01:33:12.448Z,95371.19
2023-03-29T01:36:21.230Z,95377.59
2023-03-29T01:39:24.934Z,95376.22
2023-03-29T01:42:43.031Z,95387.16
2023-03-29T01:45:56.485Z,95372.38
2023-03-29T01:49:04.712Z,95364.66
2023-03-29T01:52:15.071Z,95377.59
2023-03-29T01:55:24.026Z,95378.69
2023-03-29T01:58:36.651Z,95376.63
2023-03-29T02:01:50.396Z,95368.41
2023-03-29T02:04:58.441Z,95381.66
2023-03-29T02:08:07.154Z,95381.81
2023-03-29T02:11:14.598Z,95388.41
2023-03-29T02:14:23.144Z,95387.31
2023-03-29T02:17:34.314Z,95392.66
2023-03-29T02:20:48.690Z,95376.28
2023-03-29T02:23:56.725Z,95391.56
2023-03-29T02:27:02.711Z,95395.00
2023-03-29T02:30:11.631Z,95396.38
2023-03-29T02:33:23.251Z,95401.13
2023-03-29T02:36:36.674Z,95398.75
2023-03-29T02:39:44.077Z,95403.59
2023-03-29T02:42:53.060Z,95403.88
2023-03-29T02:46:01.610Z,95394.81
2023-03-29T02:49:07.668Z,95407.31
2023-03-29T02:52:23.400Z,95408.63
2023-03-29T02:55:53.408Z,95412.56
2023-03-29T02:59:00.719Z,95403.09
2023-03-29T03:02:08.400Z,95405.25
2023-03-29T03:05:18.427Z,95408.22
2023-03-29T03:08:25.652Z,95414.22
2023-03-29T03:11:30.398Z,95415.19
2023-03-29T03:14:37.307Z,95425.94
2023-03-29T03:17:44.160Z,95425.56
2023-03-29T03:21:02.659Z,95420.72
2023-03-29T03:24:10.398Z,95416.63
2023-03-29T03:27:19.095Z,95432.50
2023-03-29T03:33:48.469Z,95425.84
2023-03-29T03:36:57.231Z,95438.94
2023-03-29T03:40:06.528Z,95439.78
2023-03-29T03:43:14.284Z,95437.44
2023-03-29T03:46:22.273Z,95433.03
2023-03-29T03:49:25.838Z,95440.00
2023-03-29T03:52:34.372Z,95440.06
2023-03-29T03:55:41.415Z,95446.16
2023-03-29T03:58:49.153Z,95457.38
2023-03-29T04:01:57.586Z,95452.91
2023-03-29T04:05:05.495Z,95438.91
2023-03-29T04:08:14.993Z,95459.56
2023-03-29T04:11:20.054Z,95465.13
2023-03-29T04:14:25.044Z,95505.69
2023-03-29T04:17:30.708Z,95461.91
2023-03-29T04:20:38.262Z,95480.94
2023-03-29T04:23:47.421Z,95470.81
2023-03-29T04:26:55.684Z,95473.47
2023-03-29T04:30:06.373Z,95474.97
2023-03-29T04:33:13.774Z,95472.31
2023-03-29T04:36:20.098Z,95474.19
2023-03-29T04:39:36.371Z,95477.34
2023-03-29T04:42:45.421Z,95471.25
2023-03-29T04:45:52.457Z,95487.69
2023-03-29T04:48:58.519Z,95482.09
2023-03-29T04:52:05.636Z,95485.28
2023-03-29T04:55:16.084Z,95481.56
2023-03-29T04:58:25.187Z,95498.81
2023-03-29T05:01:38.390Z,95491.50
2023-03-29T05:04:48.262Z,95452.13
2023-03-29T05:07:55.127Z,95512.38
2023-03-29T05:11:04.151Z,95516.84
2023-03-29T05:14:10.443Z,95507.38
2023-03-29T05:17:17.616Z,95522.44
2023-03-29T05:20:25.442Z,95530.41
2023-03-29T05:23:32.163Z,95535.50
2023-03-29T05:26:41.267Z,95547.16
2023-03-29T05:29:49.085Z,95554.84
2023-03-29T05:32:56.744Z,95546.66
2023-03-29T05:36:05.494Z,95563.03
2023-03-29T05:39:14.616Z,95571.03
2023-03-29T05:42:23.926Z,95559.81
2023-03-29T05:45:32.432Z,95578.41
2023-03-29T05:48:39.127Z,95570.34
2023-03-29T05:51:49.230Z,95566.03
2023-03-29T05:54:57.509Z,95576.78
2023-03-29T05:58:08.908Z,95585.97
2023-03-29T06:01:15.561Z,95579.72
2023-03-29T06:04:22.110Z,95573.28
2023-03-29T06:07:30.571Z,95569.25
2023-03-29T06:10:41.190Z,95574.28
2023-03-29T06:13:50.600Z,95585.13
2023-03-29T06:16:57.784Z,95578.72
2023-03-29T06:20:10.596Z,95590.25
2023-03-29T06:23:19.531Z,95591.75
2023-03-29T06:26:29.839Z,95578.09
2023-03-29T06:29:39.924Z,95601.09
2023-03-29T06:32:47.909Z,95597.16
2023-03-29T06:35:53.403Z,95602.66
2023-03-29T06:42:23.512Z,95618.38
2023-03-29T06:45:35.743Z,95621.13
2023-03-29T06:48:43.031Z,95617.38
2023-03-29T06:51:51.813Z,95623.16
2023-03-29T06:55:00.400Z,95617.88
2023-03-29T06:58:09.978Z,95627.13
2023-03-29T07:01:19.362Z,95621.03
2023-03-29T07:04:27.128Z,95594.41
2023-03-29T07:07:44.575Z,95552.28
2023-03-29T07:10:53.713Z,95606.28
2023-03-29T07:14:02.282Z,95590.41
2023-03-29T07:17:12.698Z,95601.47
2023-03-29T07:20:19.750Z,95598.59
2023-03-29T07:23:25.863Z,95607.53
2023-03-29T07:26:33.358Z,95600.72
2023-03-29T07:29:40.722Z,95588.69
2023-03-29T07:32:51.609Z,95582.78
2023-03-29T07:35:56.466Z,95590.50
2023-03-29T07:39:05.578Z,95600.03
2023-03-29T07:42:12.792Z,95602.75
2023-03-29T07:45:26.573Z,95595.25
2023-03-29T07:48:39.889Z,95584.31
2023-03-29T07:51:47.621Z,95586.09
2023-03-29T07:54:57.148Z,95577.97
2023-03-29T07:58:04.753Z,95580.28
2023-03-29T08:01:11.056Z,95579.09
2023-03-29T08:04:24.357Z,95581.25
2023-03-29T08:07:29.003Z,95572.16
2023-03-29T08:10:34.892Z,95561.59
2023-03-29T08:13:39.654Z,95570.97
2023-03-29T08:16:44.337Z,95561.88
2023-03-29T08:19:51.258Z,95570.91
2023-03-29T08:22:58.496Z,95555.69
2023-03-29T08:26:03.197Z,95561.25
2023-03-29T08:29:08.654Z,95553.03
2023-03-29T08:32:13.955Z,95560.72
2023-03-29T08:35:20.096Z,95573.50
2023-03-29T08:38:25.187Z,95558.59
2023-03-29T08:41:42.585Z,95561.75
2023-03-29T08:45:01.300Z,95554.53
2023-03-29T08:48:17.750Z,95567.56
2023-03-29T08:51:27.532Z,95566.78
2023-03-29T08:54:36.388Z,95566.47
2023-03-29T08:57:46.091Z,95556.41
2023-03-29T09:00:54.230Z,95543.94
2023-03-29T09:04:09.429Z,95547.91
2023-03-29T09:07:17.119Z,95536.66
2023-03-29T09:10:27.028Z,95541.50
2023-03-29T09:13:45.273Z,95545.25
2023-03-29T09:16:57.857Z,95544.44
2023-03-29T09:20:15.712Z,95545.25
2023-03-29T09:23:47.221Z,95560.16
2023-03-29T09:26:56.919Z,95540.22
2023-03-29T09:30:25.244Z,95529.53
2023-03-29T09:33:35.247Z,95534.94
2023-03-29T09:36:49.037Z,95533.56
2023-03-29T09:39:57.502Z,95522.91
2023-03-29T09:43:04.723Z,95530.91
2023-03-29T09:46:18.689Z,95526.66
2023-03-29T09:49:26.984Z,95514.41
2023-03-29T09:52:31.721Z,95504.78
2023-03-29T09:55:41.680Z,95505.38
2023-03-29T09:58:48.230Z,95523.75
2023-03-29T10:01:52.500Z,95523.88
2023-03-29T10:05:01.594Z,95527.81
2023-03-29T10:08:20.432Z,95526.22
2023-03-29T10:11:32.514Z,95517.75
2023-03-29T10:14:39.713Z,95511.91
2023-03-29T10:17:46.787Z,95497.91
2023-03-29T10:20:52.340Z,95519.44
2023-03-29T10:24:01.390Z,95504.03
2023-03-29T10:27:12.812Z,95527.72
2023-03-29T10:30:28.582Z,95526.72
2023-03-29T10:33:36.159Z,95508.03
2023-03-29T10:36:43.951Z,95479.31
2023-03-29T10:39:50.140Z,95498.56
2023-03-29T10:42:59.612Z,95504.59
2023-03-29T10:46:11.165Z,95507.97
2023-03-29T10:49:21.814Z,95497.69
2023-03-29T10:52:27.033Z,95484.75
2023-03-29T10:55:37.599Z,95491.84
2023-03-29T10:58:57.597Z,95493.72
2023-03-29T11:02:43.534Z,95480.50
2023-03-29T11:05:53.995Z,95478.53
2023-03-29T11:09:01.976Z,95473.59
2023-03-29T11:12:18.008Z,95480.59
2023-03-29T11:15:38.799Z,95461.94
2023-03-29T11:19:00.521Z,95470.53
2023-03-29T11:22:12.115Z,95467.38
2023-03-29T11:25:30.702Z,95457.78
2023-03-29T11:28:44.008Z,95461.81
2023-03-29T11:32:01.255Z,95471.28
2023-03-29T11:35:30.627Z,95457.97
2023-03-29T11:38:43.292Z,95438.09
2023-03-29T11:41:54.773Z,95457.19
2023-03-29T11:45:02.530Z,95455.59
2023-03-29T11:48:15.646Z,95473.75
2023-03-29T11:51:25.231Z,95453.00
2023-03-29T11:54:36.468Z,95444.22
2023-03-29T11:57:43.774Z,95459.94
2023-03-29T12:00:56.462Z,95444.22
2023-03-29T12:04:07.801Z,95441.63
2023-03-29T12:07:17.644Z,95446.38
2023-03-29T12:10:24.023Z,95446.66
2023-03-29T12:13:32.742Z,95438.97
2023-03-29T12:16:45.778Z,95437.38
2023-03-29T12:20:05.601Z,95445.38
2023-03-29T12:23:15.512Z,95456.03
2023-03-29T12:26:35.993Z,95460.88
2023-03-29T12:29:55.475Z,95448.13
2023-03-29T12:33:24.355Z,95425.72
2023-03-29T12:36:52.521Z,95454.25
2023-03-29T12:40:12.196Z,95442.38
2023-03-29T12:43:27.684Z,95442.88
2023-03-29T12:46:35.862Z,95436.22
2023-03-29T12:49:42.067Z,95439.66
2023-03-29T12:52:48.792Z,95439.44
2023-03-29T12:56:09.178Z,95434.09
2023-03-29T12:59:28.391Z,95439.94
2023-03-29T13:02:39.487Z,95430.09
2023-03-29T13:05:47.308Z,95449.00
2023-03-29T13:09:01.528Z,95437.56
2023-03-29T13:12:24.993Z,95441.31
2023-03-29T13:15:35.233Z,95451.97
2023-03-29T13:18:58.680Z,95440.50
2023-03-29T13:22:15.897Z,95445.84
2023-03-29T13:25:39.278Z,95430.25
2023-03-29T13:28:58.456Z,95441.91
2023-03-29T13:32:15.328Z,95432.03
2023-03-29T13:35:29.106Z,95440.31
2023-03-29T13:38:35.583Z,95427.88
2023-03-29T13:41:50.557Z,95439.63
2023-03-29T13:44:55.008Z,95436.06
2023-03-29T13:48:08.520Z,95425.50
2023-03-29T13:51:29.562Z,95415.03
2023-03-29T13:54:38.760Z,95435.28
2023-03-29T13:57:52.028Z,95428.09
2023-03-29T14:01:02.903Z,95439.63
2023-03-29T14:04:13.411Z,95443.56
2023-03-29T14:07:20.824Z,95439.31
2023-03-29T14:10:29.822Z,95444.66
2023-03-29T14:13:37.626Z,95452.63
2023-03-29T14:16:43.930Z,95441.19
2023-03-29T14:19:49.784Z,95445.75
2023-03-29T14:22:55.499Z,95439.63
2023-03-29T14:26:08.948Z,95444.16
2023-03-29T14:29:17.247Z,95436.16
2023-03-29T14:32:29.718Z,95452.16
2023-03-29T14:35:35.996Z,95450.56
2023-03-29T14:38:41.639Z,95448.19
2023-03-29T14:41:51.298Z,95450.56
2023-03-29T14:45:06.379Z,95444.50
2023-03-29T14:48:14.440Z,95450.88
2023-03-29T14:51:20.527Z,95460.44
2023-03-29T14:54:28.917Z,95442.88
2023-03-29T14:57:38.102Z,95454.31
2023-03-29T15:00:44.747Z,95429.41
2023-03-29T15:03:55.251Z,95436.63
2023-03-29T15:07:01.250Z,95447.41
2023-03-29T15:10:08.755Z,95457.81
2023-03-29T15:13:21.475Z,95440.81
2023-03-29T15:16:31.894Z,95455.63
2023-03-29T15:19:39.130Z,95465.22
2023-03-29T15:22:56.046Z,95464.72
2023-03-29T15:26:09.015Z,95461.75
2023-03-29T15:29:17.523Z,95468.66
2023-03-29T15:32:34.755Z,95468.72
2023-03-29T15:35:40.120Z,95477.00
2023-03-29T15:38:45.645Z,95483.91
2023-03-29T15:41:52.767Z,95485.78
2023-03-29T15:44:58.474Z,95481.53
2023-03-29T15:48:11.048Z,95487.38
2023-03-29T15:51:16.173Z,95474.44
2023-03-29T15:54:20.941Z,95494.66
2023-03-29T15:57:26.619Z,95485.47
2023-03-29T16:00:31.878Z,95486.81
2023-03-29T16:03:39.176Z,95495.03
2023-03-29T16:06:45.576Z,95498.22
2023-03-29T16:09:50.078Z,95499.28
2023-03-29T16:12:55.153Z,95498.50
2023-03-29T16:16:00.197Z,95506.78
2023-03-29T16:19:06.825Z,95494.81
2023-03-29T16:22:11.848Z,95510.28
2023-03-29T16:25:18.026Z,95512.09
2023-03-29T16:28:23.134Z,95519.31
2023-03-29T16:31:27.884Z,95520.38
2023-03-29T16:34:34.074Z,95531.03
2023-03-29T16:37:39.466Z,95525.19
2023-03-29T16:40:44.541Z,95529.44
2023-03-29T16:43:49.127Z,95520.44
2023-03-29T16:46:55.085Z,95535.34
2023-03-29T16:50:02.111Z,95535.28
2023-03-29T16:53:06.576Z,95533.91
2023-03-29T16:56:11.284Z,95537.84
2023-03-29T16:59:15.721Z,95539.44
2023-03-29T17:02:20.393Z,95519.06
2023-03-29T17:05:27.004Z,95536.19
2023-03-29T17:08:33.036Z,95542.59
2023-03-29T17:11:37.225Z,95537.84
2023-03-29T17:14:42.688Z,95552.56
2023-03-29T17:17:47.186Z,95553.34
2023-03-29T17:20:57.240Z,95556.00
2023-03-29T17:24:02.203Z,95553.63
2023-03-29T17:27:07.085Z,95552.84
2023-03-29T17:30:12.977Z,95555.50
2023-03-29T17:33:19.192Z,95560.03
2023-03-29T17:36:29.719Z,95553.97
2023-03-29T17:39:37.598Z,95560.25
2023-03-29T17:42:42.874Z,95556.13
2023-03-29T17:45:48.050Z,95571.47
2023-03-29T17:48:53.514Z,95556.72
2023-03-29T17:52:00.806Z,95559.28
2023-03-29T17:55:04.900Z,95570.66
2023-03-29T17:58:09.541Z,95569.94
2023-03-29T18:01:14.881Z,95573.97
2023-03-29T18:04:20.056Z,95569.22
2023-03-29T18:07:26.711Z,95572.47
2023-03-29T18:10:30.497Z,95576.50
2023-03-29T18:16:54.383Z,95579.19
2023-03-29T18:19:57.931Z,95589.84
2023-03-29T18:23:03.407Z,95589.03
2023-03-29T18:26:08.106Z,95589.03
2023-03-29T18:29:11.562Z,95593.56
2023-03-29T18:32:15.249Z,95585.28
2023-03-29T18:35:18.989Z,95594.88
2023-03-29T18:38:24.100Z,95589.25
2023-03-29T18:41:27.546Z,95591.03
2023-03-29T18:44:33.778Z,95590.16
2023-03-29T18:47:37.889Z,95589.09
2023-03-29T18:50:45.360Z,95587.75
2023-03-29T18:53:52.114Z,95584.00
2023-03-29T18:56:59.116Z,95588.53
2023-03-29T19:00:11.334Z,95587.25
2023-03-29T19:03:15.627Z,95579.50
2023-03-29T19:06:19.489Z,95579.25
2023-03-29T19:09:26.026Z,95581.13
2023-03-29T19:12:31.010Z,95579.81
2023-03-29T19:15:36.251Z,95580.38
2023-03-29T19:18:42.325Z,95580.38
2023-03-29T19:21:47.159Z,95576.63
2023-03-29T19:24:52.914Z,95580.88
2023-03-29T19:27:57.833Z,95588.03
2023-03-29T19:31:04.242Z,95583.78
2023-03-29T19:34:12.721Z,95587.00
2023-03-29T19:37:18.149Z,95580.38
2023-03-29T19:40:24.195Z,95579.38
2023-03-29T19:43:29.496Z,95577.31
2023-03-29T19:46:35.134Z,95573.84
2023-03-29T19:49:40.152Z,95573.66
2023-03-29T19:52:45.563Z,95575.78
2023-03-29T19:55:51.160Z,95576.56
2023-03-29T19:58:57.613Z,95585.63
2023-03-29T20:02:03.462Z,95572.63
2023-03-29T20:05:09.377Z,95572.63
2023-03-29T20:08:14.621Z,95580.09
2023-03-29T20:11:24.575Z,95572.13
2023-03-29T20:14:29.844Z,95574.00
2023-03-29T20:17:36.311Z,95578.53
2023-03-29T20:20:42.548Z,95578.53
2023-03-29T20:23:47.758Z,95579.59
2023-03-29T20:26:55.373Z,95577.72
2023-03-29T20:30:00.986Z,95581.47
2023-03-29T20:33:07.952Z,95575.34
2023-03-29T20:36:13.764Z,95578.31
2023-03-29T20:39:19.514Z,95574.34
2023-03-29T20:42:29.941Z,95577.53
2023-03-29T20:45:46.136Z,95582.84
2023-03-29T20:48:57.175Z,95580.69
2023-03-29T20:52:03.874Z,95587.59
2023-03-29T20:55:09.676Z,95586.22
2023-03-29T20:58:16.200Z,95581.41
2023-03-29T21:01:23.286Z,95577.94
2023-03-29T21:04:30.221Z,95589.97
2023-03-29T21:07:34.031Z,95582.25
2023-03-29T21:10:43.779Z,95576.44
2023-03-29T21:13:53.465Z,95578.81
2023-03-29T21:16:59.462Z,95577.44
2023-03-29T21:20:08.361Z,95573.41
2023-03-29T21:23:14.249Z,95578.97
2023-03-29T21:26:20.450Z,95578.44
2023-03-29T21:29:28.656Z,95572.84
2023-03-29T21:32:34.990Z,95572.03
2023-03-29T21:35:40.431Z,95577.34
2023-03-29T21:38:46.090Z,95581.09
2023-03-29T21:41:50.713Z,95576.56
2023-03-29T21:45:00.317Z,95572.84
2023-03-29T21:48:05.766Z,95564.56
2023-03-29T21:51:14.063Z,95572.56
2023-03-29T21:54:18.658Z,95573.66
2023-03-29T21:57:24.474Z,95567.53
2023-03-29T22:00:32.038Z,95563.00
2023-03-29T22:03:37.004Z,95558.47
2023-03-29T22:06:44.124Z,95564.03
2023-03-29T22:09:49.253Z,95558.47
2023-03-29T22:12:55.348Z,95558.72
2023-03-29T22:16:04.694Z,95561.91
2023-03-29T22:19:12.256Z,95554.47
2023-03-29T22:22:17.962Z,95552.41
2023-03-29T22:25:24.415Z,95555.34
2023-03-29T22:28:30.143Z,95557.22
2023-03-29T22:31:39.463Z,95556.44
2023-03-29T22:34:45.983Z,95559.38
2023-03-29T22:37:52.096Z,95551.97
2023-03-29T22:40:58.261Z,95557.81
2023-03-29T22:44:06.999Z,95563.41
2023-03-29T22:47:15.130Z,95556.22
2023-03-29T22:50:21.724Z,95553.56
2023-03-29T22:53:27.980Z,95549.81
2023-03-29T22:56:34.174Z,95557.00
2023-03-29T22:59:40.473Z,95557.81
2023-03-29T23:02:48.891Z,95556.22
2023-03-29T23:05:55.304Z,95551.69
2023-03-29T23:09:01.110Z,95553.28
2023-03-29T23:12:07.861Z,95544.00
2023-03-29T23:15:14.503Z,95554.63
2023-03-29T23:18:23.447Z,95556.22
2023-03-29T23:21:28.528Z,95552.78
2023-03-29T23:24:34.272Z,95554.63
2023-03-29T23:27:41.237Z,95556.22
2023-03-29T23:30:46.415Z,95559.69
2023-03-29T23:33:54.090Z,95552.78
2023-03-29T23:36:59.535Z,95554.63
2023-03-29T23:40:09.824Z,95549.31
2023-03-29T23:43:14.724Z,95555.44
2023-03-29T23:46:21.542Z,95549.03
2023-03-29T23:49:28.686Z,95552.19
2023-03-29T23:52:34.326Z,95547.66
2023-03-29T23:55:39.342Z,95544.19
2023-03-29T23:58:44.543Z,95546.06
